METAR Data
IDs: Format: Raw Decoded Include TAF

Data at: 0820 UTC 01 Aug 2021

EDDV 010750Z 28008KT 230V320 9999 SCT016 19/14 Q1008 NOSIG